Time;durP1;ratioP1;P1;durP2;ratioP2;P2;SDS_P1;SDS_P2;PMS_P1;PMS_P2;Temp;Humidity;BMP_temperature;BMP_pressure;BME280_temperature;BME280_humidity;BME280_pressure;Samples;Min_cycle;Max_cycle;Signal;HPM_P1;HPM_P2
2022/11/12 00:01:18;;;;;;;1.00;0.80;;;31.40;99.90;;;;;;5073400;28;20219;-69
2022/11/12 00:03:46;;;;;;;2.10;1.10;;;31.30;99.90;;;;;;5072164;28;20649;-70
2022/11/12 00:06:15;;;;;;;2.30;0.90;;;31.70;99.90;;;;;;5073420;28;20179;-68
2022/11/12 00:08:42;;;;;;;1.77;0.90;;;31.90;99.90;;;;;;5072043;28;20668;-69
2022/11/12 00:11:10;;;;;;;1.88;1.00;;;32.30;99.90;;;;;;5073410;28;20233;-68
2022/11/12 00:13:38;;;;;;;1.30;0.90;;;32.30;99.90;;;;;;5065745;28;20763;-73
2022/11/12 00:16:06;;;;;;;7.55;1.70;;;32.50;99.90;;;;;;5070672;28;20188;-73
2022/11/12 00:18:34;;;;;;;3.63;1.20;;;32.30;99.90;;;;;;5057807;28;20204;-76
2022/11/12 00:21:02;;;;;;;3.83;1.20;;;30.70;99.90;;;;;;5052749;28;20193;-73
2022/11/12 00:23:29;;;;;;;3.37;1.30;;;29.50;99.90;;;;;;5052725;28;20180;-72
2022/11/12 00:26:01;;;;;;;3.33;1.30;;;29.40;99.90;;;;;;5052497;28;20548;-74
2022/11/12 00:28:30;;;;;;;3.33;1.23;;;30.30;99.90;;;;;;5068498;28;20188;-74
2022/11/12 00:30:58;;;;;;;5.87;1.30;;;30.90;99.90;;;;;;5051512;28;20199;-75
2022/11/12 00:33:26;;;;;;;2.80;1.20;;;31.40;99.90;;;;;;5052833;28;20184;-75
2022/11/12 00:35:54;;;;;;;5.10;1.30;;;31.20;99.90;;;;;;5053158;28;20184;-74
2022/11/12 00:38:21;;;;;;;5.10;1.10;;;31.30;99.90;;;;;;5052867;28;20176;-74
2022/11/12 00:40:49;;;;;;;3.97;1.33;;;31.20;99.90;;;;;;5053253;28;20283;-73
2022/11/12 00:43:17;;;;;;;3.27;1.53;;;30.90;99.90;;;;;;5053169;28;20276;-74
2022/11/12 00:45:45;;;;;;;2.57;1.30;;;30.80;99.90;;;;;;5053692;28;20180;-74
2022/11/12 00:48:12;;;;;;;3.73;1.30;;;31.00;99.90;;;;;;5072383;28;20188;-73
2022/11/12 00:50:40;;;;;;;3.33;1.40;;;30.90;99.90;;;;;;5057272;28;20263;-74
2022/11/12 00:53:08;;;;;;;3.37;1.40;;;31.00;99.90;;;;;;5057071;28;20169;-75
2022/11/12 00:55:36;;;;;;;4.43;1.10;;;31.00;99.90;;;;;;5057240;28;20670;-75
2022/11/12 00:58:04;;;;;;;3.65;1.10;;;31.30;99.90;;;;;;5055973;28;20172;-75
2022/11/12 01:00:32;;;;;;;4.63;1.33;;;32.00;99.90;;;;;;5056771;28;20180;-75
2022/11/12 01:02:59;;;;;;;2.03;0.97;;;32.00;99.90;;;;;;5056466;28;20226;-73
2022/11/12 01:05:27;;;;;;;2.23;0.70;;;31.60;99.90;;;;;;5068662;28;20187;-75
2022/11/12 01:07:55;;;;;;;4.67;1.23;;;31.40;99.90;;;;;;5077005;28;20184;-75
2022/11/12 01:10:23;;;;;;;7.57;1.67;;;31.50;99.90;;;;;;5076458;28;20190;-73
2022/11/12 01:12:51;;;;;;;4.30;1.20;;;31.40;99.90;;;;;;5076909;28;20226;-75
2022/11/12 01:15:18;;;;;;;2.53;1.20;;;31.60;99.90;;;;;;5076275;28;20239;-73
2022/11/12 01:17:46;;;;;;;3.23;1.00;;;31.70;99.90;;;;;;5076689;28;20168;-75
2022/11/12 01:20:14;;;;;;;2.30;1.07;;;31.50;99.90;;;;;;5076487;28;20230;-75
2022/11/12 01:22:42;;;;;;;4.15;1.20;;;31.60;99.90;;;;;;5076702;28;20580;-73
2022/11/12 01:25:10;;;;;;;1.47;1.00;;;31.90;99.90;;;;;;5076028;28;20664;-75
2022/11/12 01:27:38;;;;;;;3.63;1.10;;;32.00;99.90;;;;;;5074344;28;20184;-74
2022/11/12 01:30:06;;;;;;;2.70;1.07;;;31.40;99.90;;;;;;5076374;28;20267;-73
2022/11/12 01:32:37;;;;;;;4.13;1.08;;;31.40;99.90;;;;;;5076136;28;20259;-76
2022/11/12 01:35:05;;;;;;;5.50;0.97;;;31.20;99.90;;;;;;5076425;28;20214;-75
2022/11/12 01:37:33;;;;;;;5.13;1.00;;;31.10;99.90;;;;;;5075988;28;20707;-74
2022/11/12 01:40:02;;;;;;;3.47;0.90;;;30.80;99.90;;;;;;5075756;28;20211;-73
2022/11/12 01:42:31;;;;;;;3.97;1.10;;;30.80;99.90;;;;;;5076207;28;20180;-74
2022/11/12 01:44:59;;;;;;;3.97;1.00;;;30.90;99.90;;;;;;5075797;28;20661;-74
2022/11/12 01:47:33;;;;;;;2.73;1.20;;;31.10;99.90;;;;;;5062427;28;20181;-72
2022/11/12 01:50:27;;;;;;;1.60;1.10;;;31.20;99.90;;;;;;5067112;28;20183;-68
2022/11/12 01:53:22;;;;;;;2.13;1.30;;;31.20;99.90;;;;;;5076139;28;20284;-69
2022/11/12 01:55:51;;;;;;;2.60;0.90;;;31.00;99.90;;;;;;5075135;28;20203;-69
2022/11/12 01:58:24;;;;;;;5.20;1.20;;;30.40;99.90;;;;;;5075665;28;20653;-69
2022/11/12 02:00:52;;;;;;;3.67;1.03;;;30.40;99.90;;;;;;5075499;28;20176;-68
2022/11/12 02:03:22;;;;;;;4.37;1.50;;;30.40;99.90;;;;;;5075790;28;20546;-69
2022/11/12 02:05:58;;;;;;;5.67;0.93;;;30.20;99.90;;;;;;5075728;28;20176;-69
2022/11/12 02:08:31;;;;;;;3.07;1.10;;;30.40;99.90;;;;;;5075723;28;20221;-68
2022/11/12 02:11:09;;;;;;;2.90;1.10;;;30.20;99.90;;;;;;5075591;28;20180;-68
2022/11/12 02:16:42;;;;;;;2.40;1.20;;;30.30;99.90;;;;;;5075645;28;20227;-68
2022/11/12 02:19:14;;;;;;;9.57;1.50;;;30.60;99.90;;;;;;5090519;28;20234;-68
2022/11/12 02:21:42;;;;;;;2.67;1.40;;;30.60;99.90;;;;;;5075357;28;20545;-68
2022/11/12 02:24:13;;;;;;;4.57;1.43;;;30.60;99.90;;;;;;5075265;28;20208;-67
2022/11/12 02:26:50;;;;;;;3.67;1.30;;;30.70;99.90;;;;;;5075968;28;20537;-67
2022/11/12 02:29:17;;;;;;;4.73;0.97;;;30.70;99.90;;;;;;5075264;28;20203;-68
2022/11/12 02:31:45;;;;;;;3.13;0.90;;;30.60;99.90;;;;;;5090884;28;20233;-68
2022/11/12 02:34:13;;;;;;;6.27;1.20;;;30.20;99.90;;;;;;5074944;28;20342;-68
2022/11/12 02:36:41;;;;;;;6.63;1.40;;;29.70;99.90;;;;;;5075127;28;20266;-68
2022/11/12 02:39:08;;;;;;;6.17;1.50;;;29.90;99.90;;;;;;5074992;28;20172;-67
2022/11/12 02:41:36;;;;;;;2.23;0.87;;;30.10;99.90;;;;;;5075551;28;20176;-68
2022/11/12 02:44:04;;;;;;;3.40;1.50;;;30.20;99.90;;;;;;5075418;28;20198;-68
2022/11/12 02:46:32;;;;;;;3.93;1.00;;;30.30;99.90;;;;;;5075106;28;20203;-69
2022/11/12 02:49:00;;;;;;;3.67;1.20;;;30.00;99.90;;;;;;5074896;28;20172;-69
2022/11/12 02:51:28;;;;;;;5.83;1.00;;;29.70;99.90;;;;;;5074875;28;20199;-68
2022/11/12 02:53:56;;;;;;;6.20;0.87;;;29.80;99.90;;;;;;5073697;28;20612;-67
2022/11/12 02:56:24;;;;;;;2.07;1.13;;;30.20;99.90;;;;;;5074875;28;20534;-68
2022/11/12 02:58:51;;;;;;;3.23;1.30;;;30.50;99.90;;;;;;5074323;28;20176;-69
2022/11/12 03:01:19;;;;;;;2.13;1.10;;;30.20;99.90;;;;;;5074528;28;20217;-71
2022/11/12 03:03:52;;;;;;;4.67;1.10;;;30.30;99.90;;;;;;5074598;28;20180;-68
2022/11/12 03:06:21;;;;;;;1.93;0.90;;;30.30;99.90;;;;;;5074536;28;20550;-69
2022/11/12 03:08:49;;;;;;;6.30;1.73;;;30.30;99.90;;;;;;5089396;28;20182;-69
2022/11/12 03:11:17;;;;;;;2.67;1.10;;;30.70;99.90;;;;;;5074289;28;20187;-68
2022/11/12 03:13:45;;;;;;;6.20;1.10;;;30.90;99.90;;;;;;5074418;28;20566;-68
2022/11/12 03:16:13;;;;;;;4.03;1.40;;;30.70;99.90;;;;;;5074174;28;20188;-67
2022/11/12 03:18:41;;;;;;;1.50;1.00;;;30.40;99.90;;;;;;5089528;28;20184;-67
2022/11/12 03:21:09;;;;;;;3.07;1.10;;;30.10;99.90;;;;;;5074128;28;20191;-68
2022/11/12 03:23:37;;;;;;;6.73;1.37;;;29.80;99.90;;;;;;5074232;28;20188;-67
2022/11/12 03:26:05;;;;;;;2.20;1.10;;;29.40;99.90;;;;;;5074115;28;20218;-68
2022/11/12 03:28:33;;;;;;;2.83;1.10;;;29.40;99.90;;;;;;5089689;28;20176;-68
2022/11/12 03:31:02;;;;;;;5.67;1.33;;;29.40;99.90;;;;;;5073840;28;20180;-68
2022/11/12 03:33:30;;;;;;;3.70;1.63;;;29.80;99.90;;;;;;5073788;28;20209;-67
2022/11/12 03:35:58;;;;;;;5.37;1.30;;;29.60;99.90;;;;;;5074047;28;20172;-68
2022/11/12 03:38:25;;;;;;;4.10;1.20;;;29.80;99.90;;;;;;5073733;28;20175;-69
2022/11/12 03:40:55;;;;;;;7.20;1.60;;;30.00;99.90;;;;;;5073851;28;20255;-68
2022/11/12 03:43:23;;;;;;;2.30;1.10;;;29.90;99.90;;;;;;5074057;28;20176;-70
2022/11/12 03:45:51;;;;;;;5.93;1.63;;;30.10;99.90;;;;;;5073839;28;20512;-69
2022/11/12 03:48:19;;;;;;;2.63;0.97;;;30.30;99.90;;;;;;5073709;28;20184;-69
2022/11/12 03:50:47;;;;;;;2.73;1.33;;;30.30;99.90;;;;;;5073817;28;20180;-68
2022/11/12 03:53:15;;;;;;;3.47;1.10;;;30.40;99.90;;;;;;5073605;28;20229;-69
2022/11/12 03:55:43;;;;;;;2.97;1.20;;;30.40;99.90;;;;;;5073625;28;20195;-70
2022/11/12 03:58:11;;;;;;;9.07;1.80;;;30.40;99.90;;;;;;5073508;28;20168;-69
2022/11/12 04:00:39;;;;;;;2.93;1.37;;;30.10;99.90;;;;;;5088954;28;20188;-69
2022/11/12 04:03:06;;;;;;;4.13;1.20;;;29.90;99.90;;;;;;5073806;28;20208;-69
2022/11/12 04:08:36;;;;;;;2.73;1.00;;;30.20;99.90;;;;;;5072393;28;20200;-68
2022/11/12 04:11:11;;;;;;;6.37;1.73;;;30.50;99.90;;;;;;5073329;28;20550;-68
2022/11/12 04:13:40;;;;;;;6.17;1.40;;;30.30;99.90;;;;;;5073577;28;20566;-68
2022/11/12 04:21:55;;;;;;;3.60;1.30;;;29.60;99.90;;;;;;5072752;28;20183;-68
2022/11/12 04:27:26;;;;;;;7.30;1.80;;;29.40;99.90;;;;;;5073492;28;20545;-68
2022/11/12 04:33:01;;;;;;;5.60;1.37;;;29.20;99.90;;;;;;5073349;28;20217;-68
2022/11/12 04:35:29;;;;;;;4.30;1.30;;;29.30;99.90;;;;;;5088341;28;20242;-68
2022/11/12 04:37:56;;;;;;;7.17;1.43;;;29.10;99.90;;;;;;5088739;28;20618;-69
2022/11/12 04:46:01;;;;;;;8.10;1.77;;;28.60;99.90;;;;;;5073500;28;20175;-68
2022/11/12 04:48:29;;;;;;;7.33;1.60;;;28.10;99.90;;;;;;5073286;28;20637;-67
2022/11/12 04:52:03;;;;;;;2.93;1.23;;;28.10;99.90;;;;;;5073152;28;20210;-69
2022/11/12 04:53:50;;;;;;;3.47;1.17;;;28.10;99.90;;;;;;5072876;28;20325;-69
2022/11/12 04:56:17;;;;;;;4.80;1.40;;;27.70;99.90;;;;;;5073072;28;20176;-68
2022/11/12 04:58:45;;;;;;;6.87;1.43;;;27.80;99.90;;;;;;5072795;28;20172;-70
2022/11/12 05:01:12;;;;;;;4.30;1.60;;;27.70;99.90;;;;;;5072100;28;20224;-70
2022/11/12 05:03:40;;;;;;;3.77;1.27;;;27.90;99.90;;;;;;5072562;28;20183;-78
2022/11/12 05:06:50;;;;;;;9.60;1.50;;;27.90;99.90;;;;;;5074509;28;20210;-77
2022/11/12 05:08:55;;;;;;;3.77;1.17;;;27.90;99.90;;;;;;5072859;28;20222;-77
2022/11/12 05:11:23;;;;;;;3.77;1.50;;;28.30;99.90;;;;;;5073134;28;20184;-75
2022/11/12 05:13:50;;;;;;;5.67;1.70;;;28.70;99.90;;;;;;5071954;28;20204;-78
2022/11/12 05:16:18;;;;;;;4.07;1.63;;;28.40;99.90;;;;;;5052667;28;20193;-77
2022/11/12 05:18:46;;;;;;;4.23;1.70;;;27.90;99.90;;;;;;5052308;28;20168;-71
2022/11/12 05:23:59;;;;;;;4.43;1.43;;;27.60;99.90;;;;;;5051317;28;20266;-77
2022/11/12 05:26:26;;;;;;;5.33;1.20;;;27.50;99.90;;;;;;5052428;28;20627;-74
2022/11/12 05:28:53;;;;;;;7.63;1.97;;;27.50;99.90;;;;;;5057606;28;20176;-76
2022/11/12 05:31:21;;;;;;;5.73;1.40;;;27.40;99.90;;;;;;5053734;28;20177;-76
2022/11/12 05:33:49;;;;;;;6.47;1.90;;;27.30;99.90;;;;;;5058426;28;20640;-73
2022/11/12 05:36:17;;;;;;;5.27;2.07;;;27.00;99.90;;;;;;5057773;28;20172;-73
2022/11/12 05:38:44;;;;;;;5.97;2.07;;;26.90;99.90;;;;;;5058729;28;20188;-76
2022/11/12 05:41:12;;;;;;;2.87;1.83;;;26.90;99.90;;;;;;5056600;28;20211;-71
2022/11/12 05:43:40;;;;;;;6.23;2.00;;;26.50;99.90;;;;;;5058166;28;20192;-79
2022/11/12 05:46:09;;;;;;;5.33;1.57;;;26.30;99.90;;;;;;5057936;28;20239;-72
2022/11/12 05:48:36;;;;;;;8.23;2.30;;;26.20;99.90;;;;;;5053228;28;20287;-72
2022/11/12 05:51:04;;;;;;;9.53;2.00;;;25.90;99.90;;;;;;5070988;28;20187;-75
2022/11/12 05:53:31;;;;;;;4.23;1.80;;;25.70;99.90;;;;;;5056536;28;20181;-70
2022/11/12 05:56:05;;;;;;;4.73;1.77;;;25.50;99.90;;;;;;5055705;28;20188;-77
2022/11/12 05:58:33;;;;;;;5.50;1.90;;;25.30;99.90;;;;;;5051791;28;20203;-76
2022/11/12 06:01:01;;;;;;;7.30;2.20;;;25.10;99.90;;;;;;5055164;28;20309;-77
2022/11/12 06:03:28;;;;;;;5.43;1.67;;;25.00;99.90;;;;;;5057521;28;20184;-71
2022/11/12 06:05:56;;;;;;;5.43;1.90;;;25.00;99.90;;;;;;5057638;28;20251;-73
2022/11/12 06:08:23;;;;;;;7.07;1.80;;;24.90;99.90;;;;;;5073745;28;20208;-73
2022/11/12 06:10:52;;;;;;;4.70;1.70;;;24.80;99.90;;;;;;5066182;28;20183;-73
2022/11/12 06:13:21;;;;;;;5.67;2.20;;;24.80;99.90;;;;;;5062117;28;20183;-73
2022/11/12 06:15:48;;;;;;;7.50;2.70;;;24.70;99.90;;;;;;5057304;28;20196;-75
2022/11/12 06:18:16;;;;;;;6.57;2.20;;;24.70;99.90;;;;;;5058367;28;20183;-76
2022/11/12 06:20:43;;;;;;;8.77;2.40;;;24.60;99.90;;;;;;5077886;28;20179;-72
2022/11/12 06:23:11;;;;;;;5.83;2.07;;;24.50;99.90;;;;;;5076975;28;20262;-73
2022/11/12 06:25:38;;;;;;;7.43;1.87;;;24.50;99.90;;;;;;5078502;28;20591;-75
2022/11/12 06:28:05;;;;;;;7.63;1.70;;;24.50;99.90;;;;;;5078631;28;20183;-77
2022/11/12 06:30:33;;;;;;;8.10;2.07;;;24.50;99.90;;;;;;5078943;28;20187;-75
2022/11/12 06:33:00;;;;;;;7.03;1.87;;;24.40;99.90;;;;;;5078517;28;20175;-71
2022/11/12 06:35:28;;;;;;;5.30;1.87;;;24.50;99.90;;;;;;5076527;28;20214;-75
2022/11/12 06:37:55;;;;;;;6.93;2.03;;;24.40;99.90;;;;;;5076846;28;20172;-73
2022/11/12 06:40:22;;;;;;;9.27;2.20;;;24.30;99.90;;;;;;5075551;28;20236;-70
2022/11/12 06:42:57;;;;;;;7.63;2.20;;;24.20;99.90;;;;;;5077526;28;20210;-76
2022/11/12 06:45:25;;;;;;;5.60;1.70;;;24.20;99.90;;;;;;5037632;28;20188;-71
2022/11/12 06:47:59;;;;;;;4.43;1.90;;;24.30;99.90;;;;;;5055431;28;20192;-76
2022/11/12 06:50:27;;;;;;;9.77;2.40;;;24.30;99.90;;;;;;5077200;28;20249;-74
2022/11/12 06:52:59;;;;;;;5.60;2.33;;;24.30;99.90;;;;;;5077398;28;20656;-73
2022/11/12 06:55:27;;;;;;;5.97;2.37;;;24.20;99.90;;;;;;5035943;28;20228;-72
2022/11/12 06:57:55;;;;;;;6.30;2.13;;;24.20;99.90;;;;;;5036715;28;20587;-74
2022/11/12 07:00:22;;;;;;;12.13;5.50;;;24.30;99.90;;;;;;5037539;28;20206;-75
2022/11/12 07:02:49;;;;;;;8.23;2.27;;;24.10;99.90;;;;;;5036814;28;20225;-73
2022/11/12 07:05:20;;;;;;;4.03;1.50;;;24.00;99.90;;;;;;5072335;28;20180;-72
2022/11/12 07:07:48;;;;;;;6.27;2.10;;;23.90;99.90;;;;;;5089533;28;20230;-80
2022/11/12 07:10:15;;;;;;;6.60;2.00;;;23.90;99.90;;;;;;5064492;28;20188;-80
2022/11/12 07:12:43;;;;;;;4.90;2.13;;;23.80;99.90;;;;;;5060357;28;20187;-74
2022/11/12 07:15:10;;;;;;;6.47;1.70;;;23.90;99.90;;;;;;5075145;28;20257;-72
2022/11/12 07:17:38;;;;;;;7.77;2.10;;;23.90;99.90;;;;;;5077576;28;20202;-80
2022/11/12 07:20:06;;;;;;;6.10;2.07;;;24.10;99.90;;;;;;5076919;28;20191;-78
2022/11/12 07:22:33;;;;;;;7.57;2.00;;;24.20;99.90;;;;;;5076836;28;20183;-76
2022/11/12 07:25:01;;;;;;;4.00;1.60;;;24.40;99.90;;;;;;5073060;28;20184;-73
2022/11/12 07:27:31;;;;;;;4.37;1.63;;;24.50;99.90;;;;;;5074398;28;20188;-73
2022/11/12 07:29:59;;;;;;;5.90;1.60;;;24.50;99.90;;;;;;5074386;28;20266;-72
2022/11/12 07:32:26;;;;;;;4.60;1.93;;;24.40;99.90;;;;;;5073246;28;20283;-73
2022/11/12 07:34:53;;;;;;;10.83;2.73;;;24.20;99.90;;;;;;5088956;28;20717;-70
2022/11/12 07:37:21;;;;;;;9.83;2.10;;;24.10;99.90;;;;;;5073286;28;20183;-74
2022/11/12 07:39:49;;;;;;;6.57;2.40;;;23.90;99.90;;;;;;5073331;28;20262;-71
2022/11/12 07:42:16;;;;;;;6.63;1.70;;;23.80;99.90;;;;;;5073643;28;20649;-71
2022/11/12 07:44:44;;;;;;;11.07;4.30;;;23.80;99.90;;;;;;5089979;28;20199;-73
2022/11/12 07:47:11;;;;;;;10.10;2.47;;;23.60;99.90;;;;;;5089675;28;20240;-70
2022/11/12 07:49:39;;;;;;;15.07;7.33;;;23.40;99.90;;;;;;5074240;28;20239;-69
2022/11/12 07:52:06;;;;;;;4.67;2.10;;;23.30;99.90;;;;;;5074288;28;20186;-74
2022/11/12 07:54:33;;;;;;;23.60;14.30;;;23.20;99.90;;;;;;5072872;28;20245;-71
2022/11/12 07:57:01;;;;;;;45.33;25.47;;;23.00;99.90;;;;;;5074087;28;20214;-72
2022/11/12 07:59:28;;;;;;;65.63;43.27;;;22.90;99.90;;;;;;5073799;28;20183;-73
2022/11/12 08:01:56;;;;;;;70.93;53.77;;;22.70;99.90;;;;;;5073575;28;20314;-71
2022/11/12 08:04:23;;;;;;;43.17;31.97;;;22.70;99.90;;;;;;5074444;28;20194;-73
2022/11/12 08:06:51;;;;;;;64.53;43.10;;;22.70;99.90;;;;;;5073274;28;20674;-70
2022/11/12 08:09:21;;;;;;;95.13;72.23;;;22.60;99.90;;;;;;5072741;28;20742;-75
2022/11/12 08:11:51;;;;;;;42.67;29.67;;;22.60;99.90;;;;;;5074260;28;20181;-77
2022/11/12 08:14:18;;;;;;;57.40;39.47;;;22.50;99.90;;;;;;5073605;28;20192;-71
2022/11/12 08:16:46;;;;;;;109.10;84.60;;;22.50;99.90;;;;;;5074291;28;20198;-71
2022/11/12 08:19:13;;;;;;;40.20;27.07;;;22.50;99.90;;;;;;5073127;28;20175;-75
2022/11/12 08:21:40;;;;;;;42.93;33.77;;;22.40;99.90;;;;;;5088311;28;20191;-73
2022/11/12 08:24:08;;;;;;;30.63;19.50;;;22.40;99.90;;;;;;5072396;28;20234;-72
2022/11/12 08:26:35;;;;;;;36.77;23.27;;;22.30;99.90;;;;;;5072996;28;20210;-74
2022/11/12 08:29:04;;;;;;;120.73;82.33;;;22.30;99.90;;;;;;5072850;28;20216;-72
2022/11/12 08:31:31;;;;;;;24.73;18.67;;;22.20;99.90;;;;;;5088823;28;20194;-72
2022/11/12 08:34:10;;;;;;;6.90;3.37;;;22.10;99.90;;;;;;5089391;28;20203;-72
2022/11/12 08:36:39;;;;;;;8.83;2.37;;;22.10;99.90;;;;;;5073388;28;20558;-72
2022/11/12 08:39:07;;;;;;;98.60;62.87;;;22.00;99.90;;;;;;5089136;28;20558;-72
2022/11/12 08:41:35;;;;;;;84.60;60.30;;;22.00;99.90;;;;;;5072779;28;20260;-72
2022/11/12 08:44:02;;;;;;;9.70;3.90;;;21.90;99.90;;;;;;5067588;28;20196;-72
2022/11/12 08:46:30;;;;;;;17.73;9.33;;;21.90;99.90;;;;;;5052370;28;20262;-72
2022/11/12 08:48:57;;;;;;;14.27;6.10;;;21.90;99.90;;;;;;5052057;28;20199;-73
2022/11/12 08:51:25;;;;;;;8.00;2.90;;;21.70;99.90;;;;;;5063154;28;20184;-72
2022/11/12 08:53:52;;;;;;;7.33;2.37;;;21.70;99.90;;;;;;5072163;28;20235;-73
2022/11/12 08:56:20;;;;;;;7.90;2.03;;;21.70;99.90;;;;;;5070967;28;20176;-75
2022/11/12 08:58:47;;;;;;;7.60;2.07;;;21.70;99.90;;;;;;5087729;28;20184;-75
2022/11/12 09:01:15;;;;;;;5.43;2.20;;;21.60;99.90;;;;;;5071546;28;20232;-73
2022/11/12 09:03:42;;;;;;;7.50;2.23;;;21.60;99.90;;;;;;5072205;28;20175;-76
2022/11/12 09:06:10;;;;;;;6.17;2.10;;;21.60;99.90;;;;;;5071933;28;20644;-72
2022/11/12 09:08:38;;;;;;;6.30;2.37;;;21.50;99.90;;;;;;5075774;28;20228;-73
2022/11/12 09:11:06;;;;;;;6.10;2.10;;;21.60;99.90;;;;;;5076187;28;20708;-73
2022/11/12 09:13:34;;;;;;;6.03;2.37;;;21.70;99.90;;;;;;5076052;28;20168;-73
2022/11/12 09:16:06;;;;;;;6.90;1.93;;;21.70;99.90;;;;;;5075960;28;20545;-73
2022/11/12 09:18:34;;;;;;;7.53;2.10;;;21.80;99.90;;;;;;5036034;28;20170;-75
2022/11/12 09:21:07;;;;;;;4.50;2.00;;;21.80;99.90;;;;;;5035918;28;20182;-76
2022/11/12 09:23:35;;;;;;;5.00;2.00;;;21.90;99.90;;;;;;5049164;28;20183;-77
2022/11/12 09:26:04;;;;;;;7.67;1.90;;;21.90;99.90;;;;;;5075803;28;20188;-74
2022/11/12 09:28:31;;;;;;;8.70;2.23;;;21.90;99.90;;;;;;5091115;28;20709;-76
2022/11/12 09:30:59;;;;;;;5.67;2.23;;;22.00;99.90;;;;;;5091248;28;20194;-75
2022/11/12 09:33:33;;;;;;;9.17;2.10;;;21.80;99.90;;;;;;5075719;28;20177;-75
2022/11/12 09:36:04;;;;;;;12.33;2.50;;;21.80;99.90;;;;;;5075531;28;20557;-77
2022/11/12 09:38:32;;;;;;;4.80;2.73;;;21.80;99.90;;;;;;5074789;28;20184;-77
2022/11/12 09:41:14;;;;;;;5.57;2.70;;;21.80;99.90;;;;;;5075381;28;20194;-77
2022/11/12 09:43:53;;;;;;;9.73;2.50;;;21.80;99.90;;;;;;5075142;28;20271;-74
2022/11/12 09:46:36;;;;;;;6.87;2.13;;;21.70;99.90;;;;;;5075669;28;20183;-77
2022/11/12 09:49:18;;;;;;;6.73;2.20;;;21.70;99.90;;;;;;5075569;28;20172;-76
2022/11/12 09:52:01;;;;;;;7.20;2.77;;;21.70;99.90;;;;;;5075508;28;20180;-74
2022/11/12 09:54:36;;;;;;;9.03;2.50;;;21.60;99.90;;;;;;5075128;28;20196;-76
2022/11/12 09:57:04;;;;;;;6.40;2.40;;;21.60;99.90;;;;;;5075340;28;20232;-74
2022/11/12 09:59:37;;;;;;;7.50;2.23;;;21.70;99.90;;;;;;5073360;28;20179;-76
2022/11/12 10:02:22;;;;;;;5.40;2.30;;;21.60;99.90;;;;;;5073996;28;20294;-74
2022/11/12 10:05:01;;;;;;;11.70;2.60;;;21.70;99.90;;;;;;5075265;28;20240;-77
2022/11/12 10:08:06;;;;;;;9.43;2.87;;;21.70;99.90;;;;;;5073993;28;20180;-75
2022/11/12 10:10:53;;;;;;;8.03;3.10;;;21.60;99.90;;;;;;5069646;28;20233;-72
2022/11/12 10:13:29;;;;;;;8.23;2.17;;;21.50;99.90;;;;;;5074575;28;20186;-74
2022/11/12 10:19:35;;;;;;;6.73;2.30;;;21.40;99.90;;;;;;5073424;28;20198;-72
2022/11/12 10:22:39;;;;;;;5.13;2.40;;;21.30;99.90;;;;;;5075456;28;20194;-74
2022/11/12 10:25:17;;;;;;;6.43;2.63;;;21.30;99.90;;;;;;5075156;28;20190;-70
2022/11/12 10:27:45;;;;;;;7.70;2.27;;;21.30;99.90;;;;;;5073452;28;20193;-70
2022/11/12 10:30:19;;;;;;;4.87;2.23;;;21.20;99.90;;;;;;5074813;28;20297;-70
2022/11/12 10:32:48;;;;;;;5.27;2.50;;;21.10;99.90;;;;;;5090630;28;20559;-71
2022/11/12 10:35:22;;;;;;;4.40;2.40;;;21.10;99.90;;;;;;5073488;28;20235;-78
2022/11/12 10:38:06;;;;;;;7.97;2.40;;;21.00;99.90;;;;;;5075110;28;20253;-75
2022/11/12 10:40:37;;;;;;;7.80;2.73;;;20.90;99.90;;;;;;5074997;28;20230;-71
2022/11/12 10:43:05;;;;;;;9.43;2.33;;;20.90;99.90;;;;;;5075492;28;20183;-73
2022/11/12 10:45:33;;;;;;;7.83;2.40;;;20.90;99.90;;;;;;5074236;28;20521;-72
2022/11/12 10:48:00;;;;;;;9.70;2.50;;;20.90;99.90;;;;;;5073807;28;20184;-71
2022/11/12 10:50:40;;;;;;;8.03;2.53;;;20.80;99.90;;;;;;5074093;28;20188;-74
2022/11/12 10:53:11;;;;;;;8.17;2.40;;;20.80;99.90;;;;;;5074477;28;20188;-78
2022/11/12 10:55:56;;;;;;;6.00;2.43;;;20.80;99.90;;;;;;5074238;28;20741;-75
2022/11/12 10:58:23;;;;;;;8.37;3.00;;;20.70;99.90;;;;;;5074232;28;20224;-77
2022/11/12 11:01:03;;;;;;;4.50;2.67;;;20.60;99.90;;;;;;5073467;28;20223;-70
2022/11/12 11:03:37;;;;;;;7.30;3.10;;;20.50;99.90;;;;;;5073709;28;20554;-70
2022/11/12 11:06:18;;;;;;;7.33;3.00;;;20.40;99.90;;;;;;5073718;28;20214;-78
2022/11/12 11:08:51;;;;;;;9.67;3.03;;;20.40;99.90;;;;;;5073304;28;20634;-69
2022/11/12 11:11:26;;;;;;;7.97;2.80;;;20.40;99.90;;;;;;5073768;28;20185;-69
2022/11/12 11:13:56;;;;;;;7.93;2.93;;;20.30;99.90;;;;;;5073000;28;20627;-70
2022/11/12 11:16:30;;;;;;;6.50;2.47;;;20.20;99.90;;;;;;5073377;28;20211;-69
2022/11/12 11:19:04;;;;;;;11.87;2.83;;;20.30;99.90;;;;;;5073239;28;20179;-70
2022/11/12 11:21:34;;;;;;;7.43;2.43;;;20.30;99.90;;;;;;5073342;28;20230;-70
2022/11/12 11:24:31;;;;;;;10.40;2.77;;;20.20;99.90;;;;;;5073162;28;20251;-70
2022/11/12 11:27:04;;;;;;;12.63;2.60;;;20.20;99.90;;;;;;5061693;28;20194;-76
2022/11/12 11:29:35;;;;;;;6.70;2.23;;;20.20;99.90;;;;;;5072749;28;20191;-70
2022/11/12 11:32:28;;;;;;;7.90;2.40;;;20.10;99.90;;;;;;5072913;28;20186;-70
2022/11/12 11:35:32;;;;;;;6.30;2.90;;;20.20;99.90;;;;;;5064532;28;20227;-70
2022/11/12 11:38:43;;;;;;;10.07;2.60;;;20.10;99.90;;;;;;5072687;28;20181;-74
2022/11/12 11:41:32;;;;;;;6.77;2.60;;;20.00;99.90;;;;;;5060522;28;20198;-73
2022/11/12 11:44:17;;;;;;;6.70;2.73;;;20.00;99.90;;;;;;5072772;28;20176;-75
2022/11/12 11:47:02;;;;;;;4.70;2.60;;;20.00;99.90;;;;;;5072712;28;20207;-70
2022/11/12 11:49:33;;;;;;;7.50;2.93;;;20.00;99.90;;;;;;5072854;28;20259;-71
2022/11/12 11:52:19;;;;;;;6.63;2.67;;;19.90;99.90;;;;;;5067959;28;20179;-70
2022/11/12 11:55:03;;;;;;;8.87;2.60;;;19.90;99.90;;;;;;5033394;28;20228;-77
2022/11/12 11:57:50;;;;;;;5.80;2.73;;;19.90;99.90;;;;;;5055458;28;20222;-78
2022/11/12 12:00:28;;;;;;;7.80;3.10;;;19.80;99.90;;;;;;5068198;28;20211;-73
2022/11/12 12:03:21;;;;;;;8.50;2.13;;;19.90;99.90;;;;;;5073228;28;20235;-71
2022/11/12 12:06:24;;;;;;;10.80;3.73;;;19.90;99.90;;;;;;5073639;28;20644;-71
2022/11/12 12:09:03;;;;;;;9.47;2.60;;;19.90;99.90;;;;;;5073404;28;20232;-75
2022/11/12 12:11:57;;;;;;;6.63;2.57;;;20.00;99.90;;;;;;5074239;28;20186;-73
2022/11/12 12:14:53;;;;;;;8.83;2.67;;;20.10;99.90;;;;;;5073912;28;20291;-73
2022/11/12 12:17:40;;;;;;;7.90;2.63;;;20.10;99.90;;;;;;5025659;28;20194;-74
2022/11/12 12:20:34;;;;;;;8.47;2.63;;;20.10;99.90;;;;;;5030115;28;20194;-72
2022/11/12 12:23:13;;;;;;;8.37;2.80;;;20.20;99.90;;;;;;5033943;28;20259;-78
2022/11/12 12:25:43;;;;;;;11.70;3.67;;;20.20;99.90;;;;;;5033985;28;20549;-73
2022/11/12 12:28:42;;;;;;;8.33;3.53;;;20.20;99.90;;;;;;5078197;28;20667;-73
2022/11/12 12:31:18;;;;;;;4.80;3.00;;;20.20;99.90;;;;;;5073507;28;20256;-77
2022/11/12 12:34:26;;;;;;;12.43;3.60;;;20.10;99.90;;;;;;5072423;28;20185;-72
2022/11/12 12:37:17;;;;;;;11.20;3.93;;;20.10;99.90;;;;;;5068149;28;20253;-73
2022/11/12 12:40:22;;;;;;;8.40;3.60;;;20.10;99.90;;;;;;5069723;28;20188;-74
2022/11/12 12:43:18;;;;;;;10.70;4.20;;;20.00;99.90;;;;;;5066089;28;20208;-74
2022/11/12 12:45:46;;;;;;;6.77;3.67;;;20.00;99.90;;;;;;5074326;28;20179;-74
2022/11/12 12:48:30;;;;;;;7.90;3.33;;;20.10;99.90;;;;;;5088973;28;20263;-72
2022/11/12 12:50:58;;;;;;;12.20;4.20;;;20.00;99.90;;;;;;5073562;28;20172;-73
2022/11/12 12:53:28;;;;;;;10.63;4.00;;;19.90;99.90;;;;;;5073380;28;20164;-71
2022/11/12 12:56:02;;;;;;;9.60;3.70;;;19.90;99.90;;;;;;5073396;28;20614;-71
2022/11/12 12:58:47;;;;;;;8.30;3.90;;;19.90;99.90;;;;;;5071356;28;20653;-71
2022/11/12 13:01:23;;;;;;;9.07;4.07;;;19.90;99.90;;;;;;5072853;28;20258;-72
2022/11/12 13:03:56;;;;;;;6.90;4.30;;;19.80;99.90;;;;;;5072935;28;20182;-73
2022/11/12 13:06:28;;;;;;;10.00;4.07;;;19.70;99.90;;;;;;5073254;28;20207;-73
2022/11/12 13:08:55;;;;;;;12.57;3.80;;;19.70;99.90;;;;;;5072973;28;20174;-71
2022/11/12 13:14:39;;;;;;;9.20;3.43;;;19.70;99.90;;;;;;5073031;28;20593;-73
2022/11/12 13:17:14;;;;;;;9.87;4.37;;;19.60;99.90;;;;;;5073420;28;20178;-73
2022/11/12 13:19:53;;;;;;;7.67;3.80;;;19.60;99.90;;;;;;5071340;28;20184;-71
2022/11/12 13:22:22;;;;;;;7.87;3.47;;;19.60;99.90;;;;;;5088569;28;20183;-74
2022/11/12 13:25:07;;;;;;;6.53;3.50;;;19.60;99.90;;;;;;5073319;28;20180;-75
2022/11/12 13:27:44;;;;;;;7.57;4.17;;;19.60;99.90;;;;;;5073360;28;20191;-74
2022/11/12 13:30:31;;;;;;;7.53;3.47;;;19.60;99.90;;;;;;5072596;28;20186;-70
2022/11/12 13:33:02;;;;;;;7.20;3.40;;;19.60;99.90;;;;;;5072798;28;20186;-76
2022/11/12 13:35:34;;;;;;;12.40;3.80;;;19.50;99.90;;;;;;5072676;28;20238;-72
2022/11/12 13:38:14;;;;;;;8.50;3.80;;;19.50;99.90;;;;;;5073053;28;20180;-72
2022/11/12 13:40:57;;;;;;;10.93;3.70;;;19.50;99.90;;;;;;5072966;28;20529;-72
2022/11/12 13:43:39;;;;;;;6.83;3.33;;;19.50;99.90;;;;;;5072673;28;20534;-72